Time;durP1;ratioP1;P1;durP2;ratioP2;P2;SDS_P1;SDS_P2;PMS_P1;PMS_P2;Temp;Humidity;BMP_temperature;BMP_pressure;BME280_temperature;BME280_humidity;BME280_pressure;Samples;Min_cycle;Max_cycle;Signal;HPM_P1;HPM_P2
2022/12/15 00:38:51;;;;;;;9.27;5.68;;;;;;;-2.27;64.98;100071.81;5034276;28;20044;-55
2022/12/15 00:41:17;;;;;;;8.02;5.60;;;;;;;-2.24;64.69;100084.84;5033950;28;20029;-56
2022/12/15 00:43:44;;;;;;;10.43;6.07;;;;;;;-2.28;64.87;100064.84;5034103;28;20463;-55
2022/12/15 00:48:54;;;;;;;9.93;5.90;;;;;;;-2.23;64.95;100079.53;5033901;28;20057;-56
2022/12/15 00:51:19;;;;;;;10.13;6.18;;;;;;;-2.23;65.56;100092.66;5033726;28;20069;-53
2022/12/15 01:21:11;;;;;;;12.45;6.78;;;;;;;-2.00;64.92;100101.75;5033372;28;20056;-51
2022/12/15 01:23:37;;;;;;;10.50;6.47;;;;;;;-1.99;65.16;100119.19;5033469;28;20075;-50
2022/12/15 01:26:03;;;;;;;11.23;6.40;;;;;;;-2.02;64.88;100114.03;5033015;28;20030;-53
2022/12/15 01:28:29;;;;;;;9.48;6.55;;;;;;;-2.03;64.76;100113.19;5032569;28;20025;-51
2022/12/15 01:30:54;;;;;;;9.27;6.55;;;;;;;-2.09;64.66;100117.72;5032820;28;20044;-53
2022/12/15 01:33:20;;;;;;;13.38;6.78;;;;;;;-2.35;64.83;100085.09;5032894;28;20041;-56
2022/12/15 01:35:57;;;;;;;9.50;6.50;;;;;;;-2.20;64.85;100113.56;5033069;28;20040;-54
2022/12/15 01:38:23;;;;;;;11.68;7.10;;;;;;;-2.39;65.27;100110.50;5032443;28;20041;-51
2022/12/15 01:40:54;;;;;;;11.18;6.60;;;;;;;-2.46;65.01;100119.41;5033189;28;20037;-54
2022/12/15 01:43:25;;;;;;;10.40;6.75;;;;;;;-2.64;65.83;100113.66;5033031;28;20033;-54
2022/12/15 01:46:04;;;;;;;11.77;7.00;;;;;;;-2.74;66.15;100127.88;5032903;28;20032;-52
2022/12/15 01:48:48;;;;;;;10.52;6.55;;;;;;;-2.88;66.93;100129.00;5032525;28;20408;-51
2022/12/15 01:51:31;;;;;;;11.23;6.55;;;;;;;-2.97;66.48;100136.19;5033167;28;20037;-54
2022/12/15 01:54:10;;;;;;;10.77;6.68;;;;;;;-3.10;67.53;100139.06;5033077;28;20067;-56
2022/12/15 01:56:46;;;;;;;10.25;6.53;;;;;;;-3.26;67.12;100150.72;5032661;28;20040;-54
2022/12/15 01:59:18;;;;;;;12.35;6.95;;;;;;;-3.43;67.60;100133.53;5032239;28;20025;-57
2022/12/15 02:01:44;;;;;;;12.90;7.10;;;;;;;-3.48;67.65;100135.38;5029985;28;20033;-51
2022/12/15 02:04:10;;;;;;;13.27;6.90;;;;;;;-3.79;68.33;100100.13;5032180;28;20037;-48
2022/12/15 02:06:36;;;;;;;12.80;6.97;;;;;;;-3.65;68.29;100141.78;5032315;28;20033;-52
2022/12/15 02:09:01;;;;;;;12.20;6.85;;;;;;;-3.70;68.50;100141.00;5032734;28;20378;-49
2022/12/15 02:12:05;;;;;;;12.45;7.28;;;;;;;-3.65;68.99;100135.69;5033061;28;20026;-48
2022/12/15 02:14:59;;;;;;;12.35;7.50;;;;;;;-3.66;68.57;100144.44;5032526;28;20033;-53
2022/12/15 02:17:34;;;;;;;10.05;6.63;;;;;;;-3.71;69.14;100147.13;5032555;28;20022;-49
2022/12/15 02:20:27;;;;;;;12.07;7.15;;;;;;;-3.76;68.95;100149.81;5032730;28;20029;-55
2022/12/15 02:23:17;;;;;;;12.48;6.80;;;;;;;-3.77;68.72;100153.31;5032305;28;20112;-55
2022/12/15 02:26:08;;;;;;;12.95;7.30;;;;;;;-3.78;69.11;100166.44;5031804;28;20427;-53
2022/12/15 02:29:21;;;;;;;11.55;6.78;;;;;;;-3.79;69.18;100168.16;5032515;28;20448;-54
2022/12/15 02:31:58;;;;;;;10.60;6.55;;;;;;;-3.82;69.28;100172.59;5032235;28;20049;-52
2022/12/15 02:34:51;;;;;;;13.52;7.60;;;;;;;-3.82;69.12;100180.47;5032313;28;20128;-54
2022/12/15 02:37:36;;;;;;;11.90;6.97;;;;;;;-3.81;68.94;100183.03;5032417;28;20032;-54
2022/12/15 02:40:04;;;;;;;12.68;7.03;;;;;;;-3.80;69.09;100181.28;5032263;28;20065;-55
2022/12/15 02:42:32;;;;;;;11.80;7.35;;;;;;;-3.72;69.18;100178.56;5033667;28;20029;-51
2022/12/15 02:45:04;;;;;;;13.13;7.70;;;;;;;-3.60;68.97;100175.72;5036188;28;20033;-52
2022/12/15 02:47:36;;;;;;;12.93;7.35;;;;;;;-3.42;68.69;100171.94;5035955;28;20041;-55
2022/12/15 02:50:13;;;;;;;13.75;7.82;;;;;;;-3.25;68.13;100176.88;5036053;28;20054;-52
2022/12/15 02:52:52;;;;;;;12.40;7.03;;;;;;;-3.17;68.11;100177.59;5035955;28;20286;-53
2022/12/15 02:55:45;;;;;;;10.35;6.88;;;;;;;-2.97;67.74;100185.97;5036045;28;20052;-51
2022/12/15 02:58:38;;;;;;;12.05;7.05;;;;;;;-3.08;67.34;100137.28;5035708;28;20166;-56
2022/12/15 03:01:36;;;;;;;14.25;7.30;;;;;;;-2.80;66.97;100162.06;5035280;28;20495;-54
2022/12/15 03:04:04;;;;;;;10.80;6.63;;;;;;;-2.65;65.99;100181.88;5016518;28;20056;-56
2022/12/15 03:06:30;;;;;;;11.70;6.93;;;;;;;-2.58;66.13;100188.72;5016416;28;20029;-58
2022/12/15 03:08:55;;;;;;;10.27;6.30;;;;;;;-2.53;65.75;100186.84;5016133;28;20034;-54
2022/12/15 03:11:21;;;;;;;10.63;6.13;;;;;;;-2.70;65.67;100141.75;5016233;28;20085;-56
2022/12/15 03:13:46;;;;;;;13.95;6.35;;;;;;;-2.45;65.49;100177.06;5035344;28;20048;-55
2022/12/15 03:16:12;;;;;;;11.32;6.05;;;;;;;-2.42;65.65;100172.63;5035908;28;20029;-56
2022/12/15 03:18:37;;;;;;;9.55;5.82;;;;;;;-2.37;65.15;100176.06;5035787;28;20037;-54
2022/12/15 03:21:03;;;;;;;9.50;5.60;;;;;;;-2.37;64.30;100176.06;5018449;28;20026;-54
2022/12/15 03:23:28;;;;;;;12.68;6.97;;;;;;;-2.58;64.26;100146.78;5035460;28;20033;-54
2022/12/15 03:25:54;;;;;;;13.15;6.10;;;;;;;-2.35;64.58;100187.38;5035438;28;20045;-53
2022/12/15 03:28:20;;;;;;;11.85;6.93;;;;;;;-2.34;64.72;100183.84;5035650;28;20029;-50
2022/12/15 03:30:46;;;;;;;9.88;5.80;;;;;;;-2.35;64.60;100182.13;5035273;28;20033;-52
2022/12/15 03:33:12;;;;;;;11.15;6.20;;;;;;;-2.33;64.48;100191.66;5035069;28;20463;-54
2022/12/15 03:35:37;;;;;;;15.63;6.50;;;;;;;-2.33;64.61;100188.19;5035083;28;20017;-50
2022/12/15 03:38:03;;;;;;;10.50;6.78;;;;;;;-2.31;64.52;100189.03;5034216;28;20033;-51
2022/12/15 03:40:28;;;;;;;10.70;5.80;;;;;;;-2.26;64.48;100186.31;5034321;28;20033;-51
2022/12/15 03:42:53;;;;;;;10.32;6.78;;;;;;;-2.29;64.43;100194.22;5035247;28;20040;-50
2022/12/15 03:45:22;;;;;;;10.18;6.25;;;;;;;-2.26;64.20;100199.44;5035223;28;20033;-50
2022/12/15 03:47:48;;;;;;;11.45;6.43;;;;;;;-2.23;64.49;100202.81;5034867;28;20040;-53
2022/12/15 03:50:20;;;;;;;9.38;6.20;;;;;;;-2.23;64.19;100197.56;5034789;28;20096;-52
2022/12/15 03:52:52;;;;;;;12.93;6.38;;;;;;;-2.25;63.96;100199.38;5035023;28;20030;-51
2022/12/15 03:55:18;;;;;;;11.13;6.00;;;;;;;-2.21;64.15;100211.53;5034084;28;20037;-54
2022/12/15 03:57:43;;;;;;;9.43;5.95;;;;;;;-2.23;64.28;100202.81;5034775;28;20040;-50
2022/12/15 04:00:10;;;;;;;10.20;6.70;;;;;;;-2.39;63.98;100169.97;5034430;28;20057;-55
2022/12/15 04:02:36;;;;;;;10.13;6.50;;;;;;;-2.17;64.14;100207.97;5034840;28;20025;-57
2022/12/15 04:05:01;;;;;;;12.52;6.50;;;;;;;-2.19;64.34;100212.34;5035045;28;20053;-53
2022/12/15 04:07:28;;;;;;;11.73;6.88;;;;;;;-2.18;64.13;100206.19;5034577;28;20040;-54
2022/12/15 04:09:54;;;;;;;13.88;6.68;;;;;;;-2.37;63.71;100170.81;5034271;28;20030;-50
2022/12/15 04:12:19;;;;;;;10.68;6.13;;;;;;;-2.13;63.94;100213.13;5034515;28;20444;-57
2022/12/15 04:14:45;;;;;;;9.23;5.57;;;;;;;-2.17;64.43;100205.34;5034719;28;20492;-52
2022/12/15 04:17:11;;;;;;;9.93;6.07;;;;;;;-2.06;64.03;100227.84;5034449;28;20113;-53
2022/12/15 04:22:44;;;;;;;14.30;6.60;;;;;;;-2.01;63.75;100218.09;5012490;28;20034;-52
2022/12/15 05:33:55;;;;;;;14.15;7.43;;;;;;;-2.36;64.28;100274.81;5032755;28;20037;-57
2022/12/15 05:36:21;;;;;;;14.15;7.45;;;;;;;-2.39;64.23;100274.88;5032804;28;20048;-62
2022/12/15 05:38:51;;;;;;;11.65;7.00;;;;;;;-2.40;64.51;100268.75;5033039;28;20072;-61
2022/12/15 05:41:19;;;;;;;15.18;8.13;;;;;;;-2.45;64.52;100266.22;5033119;28;20341;-60
2022/12/15 05:43:45;;;;;;;10.85;6.72;;;;;;;-2.43;64.65;100273.19;5032521;28;20143;-60
2022/12/15 05:46:11;;;;;;;11.80;6.75;;;;;;;-2.44;64.43;100269.72;5033040;28;20033;-61
2022/12/15 05:48:37;;;;;;;13.85;7.50;;;;;;;-2.45;64.44;100289.81;5032638;28;20056;-61
2022/12/15 05:51:07;;;;;;;14.23;7.38;;;;;;;-2.43;64.03;100281.94;5032934;28;20042;-61
2022/12/15 05:53:34;;;;;;;13.43;7.50;;;;;;;-2.47;64.32;100281.09;5032623;28;20096;-54
2022/12/15 05:56:05;;;;;;;11.85;7.00;;;;;;;-2.50;64.54;100288.19;5031125;28;20029;-59
2022/12/15 05:58:31;;;;;;;12.38;6.63;;;;;;;-2.63;64.39;100277.94;5032722;28;20043;-57
2022/12/15 06:01:08;;;;;;;11.98;6.60;;;;;;;-2.69;65.09;100291.16;5032581;28;20033;-56
2022/12/15 06:03:33;;;;;;;10.63;6.28;;;;;;;-2.86;64.78;100290.59;5031433;28;20477;-59
2022/12/15 06:05:59;;;;;;;10.73;6.35;;;;;;;-2.93;64.60;100281.97;5032488;28;20108;-58
2022/12/15 06:08:29;;;;;;;11.15;5.93;;;;;;;-2.95;64.78;100288.97;5032101;28;20025;-57
2022/12/15 06:10:55;;;;;;;10.55;6.40;;;;;;;-2.99;64.85;100287.31;5032557;28;20082;-56
2022/12/15 06:13:22;;;;;;;9.88;5.65;;;;;;;-3.06;64.66;100276.94;5032272;28;20037;-55
2022/12/15 06:15:59;;;;;;;12.35;6.35;;;;;;;-3.05;65.01;100291.78;5032074;28;20037;-58
2022/12/15 06:18:28;;;;;;;13.23;7.10;;;;;;;-3.01;64.44;100295.22;5031189;28;20021;-57
2022/12/15 06:21:06;;;;;;;12.40;7.22;;;;;;;-2.98;64.87;100304.75;5032526;28;20029;-57
2022/12/15 06:23:33;;;;;;;11.45;7.00;;;;;;;-3.00;64.86;100299.56;5032167;28;20068;-60
2022/12/15 06:25:59;;;;;;;12.57;6.75;;;;;;;-3.01;64.57;100284.75;5032292;28;20041;-57
2022/12/15 06:28:25;;;;;;;11.82;6.82;;;;;;;-2.98;64.72;100287.31;5032234;28;20030;-56
2022/12/15 06:30:54;;;;;;;13.82;7.00;;;;;;;-3.06;64.47;100270.84;5032398;28;20056;-55
2022/12/15 06:33:21;;;;;;;15.15;7.03;;;;;;;-2.79;64.46;100310.53;5031753;28;20087;-59
2022/12/15 06:35:48;;;;;;;12.50;6.80;;;;;;;-2.71;63.79;100318.28;5032200;28;20044;-58
2022/12/15 06:38:13;;;;;;;15.25;7.03;;;;;;;-2.54;63.68;100336.31;5032388;28;20112;-58
2022/12/15 06:40:39;;;;;;;12.95;7.13;;;;;;;-2.46;63.22;100330.03;5029933;28;20065;-60
2022/12/15 06:43:06;;;;;;;17.42;7.85;;;;;;;-2.46;63.16;100330.03;5031652;28;20029;-59
2022/12/15 06:45:32;;;;;;;12.52;8.38;;;;;;;-2.57;63.17;100326.75;5031817;28;20112;-56
2022/12/15 06:47:57;;;;;;;13.10;7.97;;;;;;;-2.58;63.32;100332.91;5031299;28;20140;-57
2022/12/15 06:50:23;;;;;;;17.02;8.18;;;;;;;-2.55;63.60;100335.47;5030812;28;20034;-59
2022/12/15 06:52:48;;;;;;;14.38;8.93;;;;;;;-2.52;63.24;100350.28;5031685;28;20033;-57
2022/12/15 06:55:14;;;;;;;13.35;8.38;;;;;;;-2.54;63.07;100337.19;5031487;28;20452;-59
2022/12/15 06:57:39;;;;;;;15.38;8.75;;;;;;;-2.47;63.11;100351.91;5030672;28;20038;-56
2022/12/15 07:00:05;;;;;;;17.02;9.13;;;;;;;-2.46;63.64;100355.41;5031564;28;20025;-59
2022/12/15 07:02:31;;;;;;;19.50;9.88;;;;;;;-2.43;62.74;100355.34;5031736;28;20490;-57
2022/12/15 07:04:58;;;;;;;14.75;9.50;;;;;;;-2.47;63.27;100357.16;5031010;28;20457;-57
2022/12/15 07:07:24;;;;;;;17.52;9.82;;;;;;;-2.57;62.80;100352.97;5023920;28;20084;-63
2022/12/15 07:09:49;;;;;;;16.17;9.60;;;;;;;-2.75;62.91;100351.56;5028757;28;20037;-62
2022/12/15 07:12:15;;;;;;;19.88;10.38;;;;;;;-2.76;63.05;100363.78;5029856;28;20115;-59
2022/12/15 07:14:40;;;;;;;18.98;10.30;;;;;;;-2.83;62.95;100363.91;5025765;28;20029;-60
2022/12/15 07:17:06;;;;;;;16.52;10.20;;;;;;;-2.89;63.62;100362.28;5029725;28;20178;-61
2022/12/15 07:19:31;;;;;;;17.67;10.20;;;;;;;-2.98;63.86;100360.66;5031057;28;20033;-56
2022/12/15 07:21:57;;;;;;;16.48;10.55;;;;;;;-3.01;63.97;100363.34;5029960;28;20056;-60
2022/12/15 07:24:23;;;;;;;17.52;10.25;;;;;;;-2.97;63.27;100358.88;5030898;28;20041;-63
2022/12/15 07:26:48;;;;;;;16.73;10.07;;;;;;;-3.20;63.28;100331.31;5030182;28;20025;-62
2022/12/15 07:29:14;;;;;;;20.63;11.18;;;;;;;-2.96;63.38;100368.47;5031027;28;20126;-62
2022/12/15 07:31:40;;;;;;;18.73;10.02;;;;;;;-2.93;63.19;100373.66;5034567;28;20072;-63
2022/12/15 07:34:05;;;;;;;19.38;9.75;;;;;;;-3.02;63.01;100361.56;5031015;28;20028;-64
2022/12/15 07:36:31;;;;;;;20.65;11.05;;;;;;;-3.17;63.17;100341.72;5034133;28;20030;-63
2022/12/15 07:38:59;;;;;;;20.30;10.80;;;;;;;-2.97;63.41;100372.00;5032612;28;20033;-64
2022/12/15 07:41:25;;;;;;;19.08;11.25;;;;;;;-3.06;63.58;100355.53;5034526;28;20090;-64
2022/12/15 07:43:50;;;;;;;19.55;11.07;;;;;;;-2.97;63.69;100369.38;5030286;28;20403;-59
2022/12/15 07:46:17;;;;;;;17.50;10.23;;;;;;;-2.92;63.37;100368.41;5034518;28;20431;-62
2022/12/15 07:48:42;;;;;;;18.48;9.55;;;;;;;-3.00;62.68;100367.69;5048931;28;20046;-63
2022/12/15 07:51:08;;;;;;;16.05;9.00;;;;;;;-2.97;62.94;100358.88;5034119;28;20095;-61
2022/12/15 07:53:34;;;;;;;17.75;10.20;;;;;;;-3.00;63.32;100377.28;5033510;28;20029;-61
2022/12/15 07:56:00;;;;;;;18.25;10.63;;;;;;;-2.99;62.85;100374.66;5034019;28;20026;-53
2022/12/15 07:58:27;;;;;;;17.27;9.85;;;;;;;-2.95;63.15;100385.94;5033814;28;20048;-65
2022/12/15 08:00:57;;;;;;;16.95;9.93;;;;;;;-2.98;62.66;100388.59;5034067;28;20038;-61
2022/12/15 08:03:23;;;;;;;18.27;9.98;;;;;;;-3.21;62.50;100342.66;5031211;28;20017;-57
2022/12/15 08:05:48;;;;;;;19.80;9.75;;;;;;;-3.05;62.56;100388.72;5033196;28;20175;-61
2022/12/15 08:08:14;;;;;;;21.25;11.95;;;;;;;-3.08;63.25;100391.38;5026032;28;20514;-57
2022/12/15 08:10:40;;;;;;;18.73;11.50;;;;;;;-3.20;63.17;100386.31;5013871;28;20053;-53
2022/12/15 08:13:06;;;;;;;17.35;10.55;;;;;;;-3.29;63.56;100384.69;5013954;28;20048;-57
2022/12/15 08:15:34;;;;;;;16.92;10.57;;;;;;;-3.49;63.84;100338.72;5014443;28;20030;-58
2022/12/15 08:18:00;;;;;;;21.77;10.77;;;;;;;-3.22;63.77;100377.59;5014257;28;20030;-55
2022/12/15 08:20:25;;;;;;;19.08;10.25;;;;;;;-3.06;63.11;100375.63;5027547;28;20459;-54
2022/12/15 08:22:51;;;;;;;18.15;10.52;;;;;;;-2.93;63.25;100376.28;5028453;28;20041;-62
2022/12/15 08:25:16;;;;;;;19.48;10.10;;;;;;;-2.84;62.92;100376.16;5014294;28;20029;-58
2022/12/15 08:27:42;;;;;;;18.50;9.73;;;;;;;-2.78;62.55;100377.78;5024832;28;20042;-54
2022/12/15 08:30:08;;;;;;;18.80;9.40;;;;;;;-2.78;62.28;100365.56;5033759;28;20029;-54
2022/12/15 08:32:33;;;;;;;17.05;9.70;;;;;;;-2.82;62.82;100379.63;5033057;28;20111;-61
2022/12/15 08:34:58;;;;;;;17.55;9.32;;;;;;;-2.77;61.98;100377.78;5033161;28;20459;-60
2022/12/15 08:37:25;;;;;;;15.52;9.45;;;;;;;-2.81;62.11;100378.72;5030712;28;20033;-56
2022/12/15 08:39:51;;;;;;;19.60;10.52;;;;;;;-2.78;62.28;100385.66;5030916;28;20052;-57
2022/12/15 08:42:16;;;;;;;15.13;8.98;;;;;;;-3.01;61.95;100350.22;5033160;28;20108;-58
2022/12/15 08:44:42;;;;;;;14.85;8.77;;;;;;;-2.84;62.13;100393.63;5033292;28;20456;-58
2022/12/15 08:47:07;;;;;;;14.40;8.70;;;;;;;-2.81;61.93;100390.94;5033365;28;20854;-56
2022/12/15 08:49:33;;;;;;;14.40;8.40;;;;;;;-3.00;62.50;100382.53;5033682;28;20092;-57
2022/12/15 08:51:58;;;;;;;12.25;7.50;;;;;;;-2.94;62.46;100377.19;5032773;28;20046;-58
2022/12/15 08:54:25;;;;;;;12.93;7.35;;;;;;;-2.90;61.77;100387.59;5032785;28;20053;-57
2022/12/15 08:56:50;;;;;;;13.80;7.85;;;;;;;-3.01;62.02;100378.19;5029020;28;20045;-57
2022/12/15 08:59:16;;;;;;;14.07;7.68;;;;;;;-3.00;61.80;100395.63;5023222;28;20054;-59
2022/12/15 09:01:42;;;;;;;15.43;7.38;;;;;;;-3.07;61.91;100390.50;5022120;28;20391;-58
2022/12/15 09:04:07;;;;;;;15.40;7.45;;;;;;;-3.06;62.42;100391.34;5023580;28;20116;-57
2022/12/15 09:06:35;;;;;;;16.23;7.82;;;;;;;-3.03;62.20;100392.16;5021995;28;20033;-55
2022/12/15 09:09:05;;;;;;;12.10;7.28;;;;;;;-3.01;62.11;100396.50;5031792;28;20466;-56
2022/12/15 09:11:30;;;;;;;12.77;7.43;;;;;;;-3.00;62.04;100391.25;5033113;28;20029;-61
2022/12/15 09:13:57;;;;;;;15.20;7.40;;;;;;;-2.93;62.34;100392.00;5033243;28;20324;-60
2022/12/15 09:16:22;;;;;;;12.85;7.78;;;;;;;-3.15;62.47;100342.56;5032677;28;20460;-58
2022/12/15 09:18:53;;;;;;;14.10;7.30;;;;;;;-2.88;61.92;100375.34;5032633;28;20105;-56
2022/12/15 09:21:21;;;;;;;12.18;7.78;;;;;;;-2.87;62.23;100370.97;5032976;28;20402;-58
2022/12/15 09:23:50;;;;;;;13.38;8.02;;;;;;;-2.85;61.29;100358.72;5032744;28;20353;-61
2022/12/15 09:26:16;;;;;;;14.68;7.50;;;;;;;-2.77;61.44;100356.81;5032261;28;20398;-55
2022/12/15 09:28:42;;;;;;;14.45;7.57;;;;;;;-2.72;61.24;100364.59;5031353;28;20061;-59
2022/12/15 09:31:19;;;;;;;12.20;7.25;;;;;;;-2.67;60.81;100360.13;5032974;28;20036;-59
2022/12/15 09:33:45;;;;;;;15.45;8.32;;;;;;;-2.75;61.08;100357.66;5033331;28;20091;-58
2022/12/15 09:36:12;;;;;;;13.68;7.68;;;;;;;-2.74;60.91;100359.38;5032821;28;20033;-55
2022/12/15 09:38:39;;;;;;;13.85;7.35;;;;;;;-2.70;61.39;100359.31;5029239;28;20397;-58
2022/12/15 09:41:13;;;;;;;12.95;7.75;;;;;;;-2.74;61.50;100351.50;5013293;28;20030;-58
2022/12/15 09:44:09;;;;;;;14.13;8.20;;;;;;;-2.74;61.10;100350.66;5025978;28;20037;-57
2022/12/15 09:47:07;;;;;;;13.60;6.88;;;;;;;-2.70;61.29;100339.22;5032221;28;20136;-51
2022/12/15 09:49:45;;;;;;;14.85;7.45;;;;;;;-2.70;61.49;100326.13;5032756;28;20078;-51
2022/12/15 09:52:15;;;;;;;16.60;7.38;;;;;;;-2.75;61.24;100325.34;5031294;28;20464;-59
2022/12/15 09:54:42;;;;;;;13.40;7.03;;;;;;;-2.71;60.96;100313.91;5032175;28;20069;-59
2022/12/15 09:57:31;;;;;;;12.05;7.35;;;;;;;-2.70;61.53;100313.00;5031060;28;20063;-59
2022/12/15 10:00:10;;;;;;;11.45;7.10;;;;;;;-2.71;60.98;100308.66;5032415;28;20041;-57
2022/12/15 10:02:44;;;;;;;14.77;7.97;;;;;;;-2.68;60.97;100302.50;5032767;28;20037;-55
2022/12/15 10:05:27;;;;;;;18.43;8.50;;;;;;;-2.56;60.97;100296.16;5032275;28;20051;-57
2022/12/15 10:07:53;;;;;;;12.95;7.90;;;;;;;-2.53;61.09;100302.22;5032345;28;20025;-60
2022/12/15 10:10:22;;;;;;;18.75;10.02;;;;;;;-2.47;60.73;100291.59;5031809;28;20348;-59
2022/12/15 10:12:52;;;;;;;12.20;7.32;;;;;;;-2.46;60.76;100293.31;5032793;28;20064;-56
2022/12/15 10:15:46;;;;;;;15.20;7.70;;;;;;;-2.38;61.09;100281.84;5032620;28;20411;-58
2022/12/15 10:18:22;;;;;;;13.45;8.27;;;;;;;-2.40;60.63;100263.50;5032061;28;20065;-59
2022/12/15 10:20:51;;;;;;;12.38;7.43;;;;;;;-2.48;60.29;100274.13;5032637;28;20041;-62
2022/12/15 10:23:17;;;;;;;15.00;8.15;;;;;;;-2.47;60.21;100273.25;5030826;28;20444;-63
2022/12/15 10:25:48;;;;;;;14.70;8.25;;;;;;;-2.67;60.11;100251.78;5031722;28;20033;-60
2022/12/15 10:28:33;;;;;;;12.80;8.25;;;;;;;-2.66;60.59;100258.75;5032005;28;20452;-57
2022/12/15 10:31:05;;;;;;;13.88;8.40;;;;;;;-2.85;60.52;100230.31;5031757;28;20033;-61
2022/12/15 10:33:36;;;;;;;12.85;7.88;;;;;;;-2.53;60.33;100270.75;5031632;28;20391;-61
2022/12/15 10:36:13;;;;;;;14.40;8.27;;;;;;;-2.59;60.70;100278.75;5031969;28;20021;-59
2022/12/15 10:38:44;;;;;;;18.42;8.15;;;;;;;-2.69;61.03;100277.16;5030942;28;20623;-63
2022/12/15 10:41:17;;;;;;;15.45;8.65;;;;;;;-2.88;60.53;100249.56;5012945;28;20046;-62
2022/12/15 10:43:46;;;;;;;14.88;8.15;;;;;;;-2.64;60.68;100289.31;5012272;28;20069;-63
2022/12/15 10:46:26;;;;;;;14.43;9.02;;;;;;;-2.59;61.03;100286.59;5015608;28;20048;-59
2022/12/15 10:49:20;;;;;;;15.10;7.97;;;;;;;-2.55;60.85;100292.63;5031450;28;20045;-58
2022/12/15 10:51:58;;;;;;;11.75;7.25;;;;;;;-2.47;60.37;100288.97;5030859;28;20149;-59
2022/12/15 10:54:30;;;;;;;12.75;7.50;;;;;;;-2.61;60.55;100286.63;5028288;28;20041;-59
2022/12/15 10:57:02;;;;;;;16.73;9.80;;;;;;;-2.62;60.82;100278.81;5030418;28;20112;-59
2022/12/15 10:59:36;;;;;;;15.77;9.45;;;;;;;-2.65;61.67;100286.72;5031476;28;20131;-60
2022/12/15 11:02:19;;;;;;;14.15;8.57;;;;;;;-2.59;61.70;100286.59;5031350;28;20044;-63
2022/12/15 11:05:05;;;;;;;16.35;9.40;;;;;;;-2.60;61.13;100292.75;5033956;28;20060;-58
2022/12/15 11:07:40;;;;;;;15.82;9.20;;;;;;;-2.57;61.13;100295.31;5035202;28;20026;-57
2022/12/15 11:13:17;;;;;;;16.70;8.82;;;;;;;-2.55;60.96;100306.63;5023576;28;19917;-64
2022/12/15 11:15:55;;;;;;;16.40;8.90;;;;;;;-2.49;61.04;100313.53;5015464;28;20025;-63
2022/12/15 11:18:21;;;;;;;17.38;9.88;;;;;;;-2.53;60.95;100319.69;5015792;28;20025;-62
2022/12/15 11:20:53;;;;;;;19.48;9.90;;;;;;;-2.55;61.51;100319.72;5015216;28;20140;-63
2022/12/15 11:23:27;;;;;;;22.02;10.25;;;;;;;-2.53;60.69;100315.31;5022862;28;20097;-63
2022/12/15 11:25:59;;;;;;;20.10;11.27;;;;;;;-2.62;61.36;100312.88;5034236;28;20112;-62
2022/12/15 11:28:40;;;;;;;25.60;11.15;;;;;;;-2.69;61.70;100304.25;5035228;28;20033;-57
2022/12/15 11:31:35;;;;;;;23.83;11.60;;;;;;;-2.66;62.31;100305.94;5034883;28;20083;-58
2022/12/15 11:34:01;;;;;;;18.65;10.40;;;;;;;-2.70;61.18;100314.75;5034589;28;20113;-58
2022/12/15 11:36:48;;;;;;;20.33;10.38;;;;;;;-2.65;61.84;100302.47;5034949;28;20116;-62
2022/12/15 11:39:41;;;;;;;18.48;10.35;;;;;;;-2.64;60.91;100296.31;5034619;28;20045;-55
2022/12/15 11:42:46;;;;;;;19.98;10.77;;;;;;;-2.77;61.87;100293.91;5014502;28;20104;-60
2022/12/15 11:45:33;;;;;;;17.55;9.82;;;;;;;-2.79;61.43;100292.19;5014960;28;20333;-60
2022/12/15 11:48:09;;;;;;;19.42;10.35;;;;;;;-2.88;61.61;100288.84;5016302;28;20083;-58
2022/12/15 11:50:43;;;;;;;18.65;10.45;;;;;;;-2.88;61.63;100285.38;5033864;28;20037;-60
2022/12/15 11:53:37;;;;;;;12.73;7.37;;;;;;;-2.82;62.09;100293.13;5034254;28;20102;-62
2022/12/15 11:56:22;;;;;;;20.88;10.77;;;;;;;-2.97;61.28;100283.78;5023096;28;20037;-58
2022/12/15 11:59:04;;;;;;;17.13;9.77;;;;;;;-2.96;61.21;100287.25;5017685;28;20107;-58
2022/12/15 12:02:14;;;;;;;18.42;9.95;;;;;;;-3.04;61.95;100279.53;5034160;28;20100;-56
2022/12/15 12:04:59;;;;;;;22.30;10.00;;;;;;;-3.07;61.44;100275.22;5034055;28;20049;-58
2022/12/15 12:07:42;;;;;;;16.80;9.60;;;;;;;-3.11;61.93;100278.78;5033966;28;20049;-57
2022/12/15 12:10:16;;;;;;;23.90;10.43;;;;;;;-3.24;61.93;100279.88;5031836;28;20041;-57
2022/12/15 12:12:51;;;;;;;20.87;11.87;;;;;;;-3.21;61.96;100271.97;5046307;28;20065;-58
2022/12/15 12:15:34;;;;;;;21.77;11.23;;;;;;;-3.29;61.94;100258.13;5030083;28;20033;-59
2022/12/15 12:18:15;;;;;;;21.95;11.25;;;;;;;-3.19;62.07;100260.56;5033118;28;20179;-57
2022/12/15 12:20:48;;;;;;;24.73;11.13;;;;;;;-3.33;61.66;100262.56;5024306;28;20037;-58
2022/12/15 12:23:21;;;;;;;21.50;11.30;;;;;;;-3.27;61.98;100254.59;5023517;28;20449;-56
2022/12/15 12:26:10;;;;;;;22.42;11.23;;;;;;;-3.38;62.27;100246.91;5023139;28;20049;-56
2022/12/15 12:28:45;;;;;;;20.17;9.98;;;;;;;-3.27;61.99;100251.13;5032621;28;20048;-63
2022/12/15 12:31:37;;;;;;;23.17;10.93;;;;;;;-3.37;62.80;100232.94;5032500;28;20392;-55
2022/12/15 12:34:12;;;;;;;23.17;10.93;;;;;;;-3.48;62.80;100238.38;5033578;28;20034;-55
2022/12/15 12:36:40;;;;;;;24.02;11.55;;;;;;;-3.64;62.08;100222.00;5033301;28;20037;-55
2022/12/15 12:39:18;;;;;;;20.70;10.65;;;;;;;-3.50;62.10;100242.72;5033442;28;20037;-53
2022/12/15 12:41:48;;;;;;;23.17;10.75;;;;;;;-3.62;62.28;100224.63;5025976;28;20029;-61
2022/12/15 12:44:36;;;;;;;21.15;10.48;;;;;;;-3.56;62.90;100237.59;5033519;28;20033;-58
2022/12/15 12:47:27;;;;;;;21.95;10.85;;;;;;;-3.56;62.81;100242.00;5033417;28;20116;-55
2022/12/15 12:49:57;;;;;;;19.02;10.50;;;;;;;-3.63;62.49;100233.38;5027301;28;20048;-61
2022/12/15 12:52:30;;;;;;;20.50;10.70;;;;;;;-3.64;62.59;100231.63;5032181;28;20107;-64
2022/12/15 12:55:01;;;;;;;21.17;11.13;;;;;;;-3.48;61.94;100233.13;5031154;28;20475;-57
2022/12/15 12:57:49;;;;;;;21.65;11.15;;;;;;;-3.66;62.95;100223.78;5030686;28;20049;-58
2022/12/15 13:00:14;;;;;;;;;;;;;;;-3.54;62.18;100214.03;5030143;28;20045;-58
2022/12/15 13:02:47;;;;;;;21.50;11.27;;;;;;;-3.76;62.83;100212.59;5031283;28;19921;-58
2022/12/15 13:05:29;;;;;;;20.42;10.18;;;;;;;-3.78;63.07;100206.53;5030671;28;20025;-59
2022/12/15 13:08:17;;;;;;;23.25;11.82;;;;;;;-3.83;63.33;100197.03;5032096;28;20033;-60
2022/12/15 13:10:47;;;;;;;24.17;11.85;;;;;;;-3.85;63.17;100181.34;5031590;28;20120;-66
2022/12/15 13:13:30;;;;;;;23.17;12.48;;;;;;;-3.79;62.92;100186.47;5030316;28;20025;-56
2022/12/15 13:16:11;;;;;;;24.48;11.55;;;;;;;-3.78;63.30;100189.97;5012607;28;20045;-55
2022/12/15 13:19:00;;;;;;;22.67;11.73;;;;;;;-3.83;63.51;100176.97;5031278;28;20029;-55
2022/12/15 13:21:41;;;;;;;21.77;11.30;;;;;;;-3.88;63.45;100176.19;5031792;28;20475;-56
2022/12/15 13:24:40;;;;;;;25.13;11.27;;;;;;;-3.90;63.84;100177.94;5030785;28;20033;-56
2022/12/15 13:27:08;;;;;;;22.33;11.43;;;;;;;-3.88;63.36;100178.78;5023930;28;20029;-53
2022/12/15 13:29:35;;;;;;;23.70;11.68;;;;;;;-3.92;63.25;100164.03;5022935;28;20030;-57
2022/12/15 13:32:01;;;;;;;24.55;12.80;;;;;;;-4.05;63.85;100150.28;5029656;28;20111;-59
2022/12/15 13:34:35;;;;;;;24.00;12.25;;;;;;;-4.01;64.00;100154.56;5031616;28;20030;-59
2022/12/15 13:37:01;;;;;;;21.45;11.57;;;;;;;-3.94;63.19;100145.72;5032238;28;20125;-54
2022/12/15 13:39:26;;;;;;;24.55;12.75;;;;;;;-4.05;63.45;100142.44;5032034;28;20454;-63
2022/12/15 13:41:55;;;;;;;22.85;12.05;;;;;;;-4.05;63.66;100143.28;5029771;28;20441;-64
2022/12/15 13:44:23;;;;;;;18.67;8.85;;;;;;;-4.01;64.23;100154.56;5031482;28;20387;-58
2022/12/15 13:46:51;;;;;;;21.50;11.27;;;;;;;-4.11;63.69;100142.50;5012568;28;20479;-56
2022/12/15 13:49:30;;;;;;;21.50;11.25;;;;;;;-4.20;63.82;100133.91;5014548;28;20054;-53
2022/12/15 13:52:02;;;;;;;22.05;11.10;;;;;;;-4.08;63.82;100132.03;5032260;28;20455;-64
2022/12/15 13:54:35;;;;;;;20.75;9.48;;;;;;;-4.03;63.03;100125.81;5032469;28;20033;-58
2022/12/15 13:57:03;;;;;;;27.67;11.75;;;;;;;-4.11;63.07;100134.66;5030223;28;20037;-57
2022/12/15 13:59:32;;;;;;;24.17;11.95;;;;;;;-4.16;62.74;100133.88;5031928;28;20037;-59